createdAt,value
2019-03-09T00:01:19.060Z,12.27
2019-03-09T00:03:48.733Z,11.67
2019-03-09T00:06:17.508Z,16.30
2019-03-09T00:08:46.618Z,18.30
2019-03-09T00:11:15.225Z,12.20
2019-03-09T00:13:43.901Z,7.47
2019-03-09T00:16:12.507Z,11.50
2019-03-09T00:18:41.108Z,14.53
2019-03-09T00:21:09.713Z,16.53
2019-03-09T00:23:56.151Z,8.57
2019-03-09T00:26:48.328Z,9.63
2019-03-09T00:29:39.052Z,13.23
2019-03-09T00:32:10.340Z,15.17
2019-03-09T00:34:39.349Z,10.43
2019-03-09T00:37:08.270Z,11.17
2019-03-09T00:39:36.875Z,16.00
2019-03-09T00:42:05.653Z,14.83
2019-03-09T00:44:34.320Z,11.90
2019-03-09T00:47:03.269Z,10.10
2019-03-09T00:49:32.114Z,10.67
2019-03-09T00:52:01.048Z,11.67
2019-03-09T00:54:29.656Z,11.50
2019-03-09T00:56:58.330Z,7.37
2019-03-09T00:59:27.025Z,16.20
2019-03-09T01:01:55.681Z,7.93
2019-03-09T01:04:24.511Z,11.60
2019-03-09T01:06:53.139Z,12.40
2019-03-09T01:09:22.086Z,18.67
2019-03-09T01:11:50.686Z,12.10
2019-03-09T01:14:19.302Z,11.33
2019-03-09T01:16:48.145Z,6.73
2019-03-09T01:19:16.786Z,7.20
2019-03-09T01:21:45.670Z,13.53
2019-03-09T01:24:14.923Z,8.53
2019-03-09T01:26:43.644Z,10.37
2019-03-09T01:29:12.721Z,12.40
2019-03-09T01:31:41.361Z,8.60
2019-03-09T01:34:09.970Z,10.17
2019-03-09T01:36:38.730Z,6.97
2019-03-09T01:39:08.148Z,6.77
2019-03-09T01:41:36.786Z,12.00
2019-03-09T01:44:05.495Z,11.00
2019-03-09T01:46:34.127Z,11.10
2019-03-09T01:49:03.326Z,5.70
2019-03-09T01:51:32.059Z,5.63
2019-03-09T01:54:01.046Z,9.07
2019-03-09T01:56:29.645Z,6.70
2019-03-09T01:58:58.331Z,9.17
2019-03-09T02:01:26.955Z,13.27
2019-03-09T02:03:55.558Z,4.80
2019-03-09T02:06:24.574Z,11.07
2019-03-09T02:08:53.148Z,10.80
2019-03-09T02:11:21.962Z,8.67
2019-03-09T02:13:50.946Z,6.53
2019-03-09T02:16:19.613Z,9.53
2019-03-09T02:18:48.210Z,13.43
2019-03-09T02:21:17.179Z,9.73
2019-03-09T02:23:46.149Z,10.43
2019-03-09T02:26:15.049Z,5.43
2019-03-09T02:28:43.871Z,5.67
2019-03-09T02:31:12.756Z,6.87
2019-03-09T02:33:41.475Z,5.60
2019-03-09T02:36:10.317Z,2.77
2019-03-09T02:38:49.785Z,4.43
2019-03-09T02:41:19.087Z,8.40
2019-03-09T02:43:47.684Z,5.30
2019-03-09T02:46:16.307Z,3.30
2019-03-09T02:48:45.149Z,3.90
2019-03-09T02:51:13.781Z,3.33
2019-03-09T02:53:42.664Z,4.50
2019-03-09T02:56:11.289Z,3.20
2019-03-09T02:58:40.168Z,9.00
2019-03-09T03:01:26.347Z,2.97
2019-03-09T03:03:55.205Z,2.30
2019-03-09T03:06:24.085Z,2.70
2019-03-09T03:08:52.824Z,2.83
2019-03-09T03:11:21.660Z,3.50
2019-03-09T03:13:50.273Z,1.80
2019-03-09T03:16:19.080Z,1.53
2019-03-09T03:18:47.695Z,1.47
2019-03-09T03:21:16.634Z,1.63
2019-03-09T03:23:45.224Z,1.60
2019-03-09T03:26:14.118Z,1.60
2019-03-09T03:28:42.712Z,4.20
2019-03-09T03:31:11.306Z,1.60
2019-03-09T03:33:40.526Z,1.00
2019-03-09T03:36:09.133Z,1.43
2019-03-09T03:38:37.739Z,1.30
2019-03-09T03:41:06.329Z,1.30
2019-03-09T03:43:35.295Z,1.50
2019-03-09T03:46:03.877Z,1.53
2019-03-09T03:48:32.471Z,1.30
2019-03-09T03:51:01.631Z,1.10
2019-03-09T03:53:30.229Z,1.10
2019-03-09T03:55:59.044Z,1.67
2019-03-09T03:58:27.622Z,5.43
2019-03-09T04:00:56.306Z,1.23
2019-03-09T04:03:24.916Z,0.90
2019-03-09T04:05:53.680Z,1.00
2019-03-09T04:08:22.343Z,0.90
2019-03-09T04:10:51.027Z,1.20
2019-03-09T04:13:19.618Z,0.87
2019-03-09T04:15:48.463Z,1.17
2019-03-09T04:18:17.077Z,1.27
2019-03-09T04:20:45.710Z,2.30
2019-03-09T04:23:14.310Z,1.10
2019-03-09T04:25:43.113Z,0.77
2019-03-09T04:28:11.854Z,4.00
2019-03-09T04:30:40.462Z,0.83
2019-03-09T04:33:09.225Z,0.50
2019-03-09T04:35:38.045Z,0.60
2019-03-09T04:38:07.083Z,0.50
2019-03-09T04:40:35.698Z,0.50
2019-03-09T04:43:04.391Z,0.60
2019-03-09T04:45:33.322Z,0.50
2019-03-09T04:48:01.943Z,0.77
2019-03-09T04:50:30.540Z,0.43
2019-03-09T04:52:59.404Z,1.80
2019-03-09T04:55:28.003Z,0.50
2019-03-09T04:57:56.692Z,0.50
2019-03-09T05:00:25.298Z,0.40
2019-03-09T05:02:53.926Z,0.47
2019-03-09T05:05:22.527Z,0.50
2019-03-09T05:08:04.068Z,0.53
2019-03-09T05:10:42.363Z,0.50
2019-03-09T05:13:14.574Z,0.47
2019-03-09T05:15:43.406Z,0.50
2019-03-09T05:18:12.019Z,0.40
2019-03-09T05:20:40.591Z,0.60
2019-03-09T05:23:09.248Z,0.40
2019-03-09T05:25:37.910Z,0.67
2019-03-09T05:28:06.530Z,0.40
2019-03-09T05:30:42.547Z,0.40
2019-03-09T05:33:11.296Z,0.40
2019-03-09T05:35:39.987Z,0.40
2019-03-09T05:38:08.621Z,0.60
2019-03-09T05:40:37.225Z,0.60
2019-03-09T05:43:06.095Z,0.40
2019-03-09T05:45:34.721Z,0.47
2019-03-09T05:48:03.298Z,0.67
2019-03-09T05:50:32.298Z,0.50
2019-03-09T05:53:09.953Z,0.50
2019-03-09T05:55:38.550Z,0.80
2019-03-09T05:58:07.141Z,0.70
2019-03-09T06:00:37.073Z,0.50
2019-03-09T06:03:05.673Z,0.50
2019-03-09T06:05:42.022Z,0.50
2019-03-09T06:08:10.657Z,1.87
2019-03-09T06:10:39.268Z,0.60
2019-03-09T06:13:07.838Z,0.50
2019-03-09T06:15:36.449Z,0.60
2019-03-09T06:18:06.435Z,0.70
2019-03-09T06:20:35.305Z,5.03
2019-03-09T06:23:04.282Z,1.10
2019-03-09T06:25:32.902Z,1.13
2019-03-09T06:28:01.540Z,0.90
2019-03-09T06:30:30.220Z,0.97
2019-03-09T06:33:19.113Z,1.80
2019-03-09T06:35:49.887Z,1.47
2019-03-09T06:38:53.596Z,3.07
2019-03-09T06:41:32.498Z,3.23
2019-03-09T06:44:01.162Z,3.20
2019-03-09T06:46:29.824Z,5.20
2019-03-09T06:48:58.472Z,4.50
2019-03-09T06:51:27.288Z,4.10
2019-03-09T06:53:56.117Z,4.60
2019-03-09T06:56:24.800Z,4.20
2019-03-09T06:58:53.647Z,8.40
2019-03-09T07:01:22.601Z,7.27
2019-03-09T07:03:51.268Z,7.00
2019-03-09T07:06:19.871Z,10.70
2019-03-09T07:08:48.561Z,9.00
2019-03-09T07:11:17.265Z,9.77
2019-03-09T07:13:52.735Z,10.90
2019-03-09T07:16:16.209Z,6.40
2019-03-09T07:18:45.231Z,10.53
2019-03-09T07:21:13.872Z,6.20
2019-03-09T07:23:42.935Z,8.73
2019-03-09T07:26:11.661Z,3.63
2019-03-09T07:28:40.258Z,3.60
2019-03-09T07:31:08.948Z,2.50
2019-03-09T07:33:37.593Z,3.90
2019-03-09T07:36:06.341Z,9.20
2019-03-09T07:38:35.308Z,7.93
2019-03-09T07:41:04.284Z,4.70
2019-03-09T07:43:32.976Z,10.60
2019-03-09T07:46:01.566Z,7.43
2019-03-09T07:48:30.239Z,12.27
2019-03-09T07:50:58.849Z,4.90
2019-03-09T07:53:27.550Z,13.93
2019-03-09T07:55:56.140Z,9.40
2019-03-09T07:58:24.789Z,9.00
2019-03-09T08:00:53.381Z,6.67
2019-03-09T08:03:22.308Z,7.73
2019-03-09T08:05:50.938Z,8.77
2019-03-09T08:08:19.542Z,9.83
2019-03-09T08:10:48.399Z,8.50
2019-03-09T08:13:17.513Z,8.63
2019-03-09T08:15:46.536Z,5.73
2019-03-09T08:18:15.133Z,9.17
2019-03-09T08:20:43.880Z,9.00
2019-03-09T08:23:12.785Z,6.73
2019-03-09T08:25:41.571Z,6.87
2019-03-09T08:28:10.200Z,8.90
2019-03-09T08:30:38.791Z,6.57
2019-03-09T08:33:07.413Z,8.03
2019-03-09T08:35:36.014Z,12.80
2019-03-09T08:38:04.736Z,11.00
2019-03-09T08:40:33.374Z,9.73
2019-03-09T08:43:01.966Z,11.73
2019-03-09T08:45:30.668Z,14.67
2019-03-09T08:47:59.317Z,9.40
2019-03-09T08:50:28.334Z,6.90
2019-03-09T08:52:56.918Z,8.63
2019-03-09T08:55:26.139Z,10.07
2019-03-09T08:57:54.757Z,10.33
2019-03-09T09:00:25.528Z,7.87
2019-03-09T09:02:54.147Z,10.30
2019-03-09T09:05:22.808Z,10.73
2019-03-09T09:07:51.485Z,11.00
2019-03-09T09:10:20.394Z,8.60
2019-03-09T09:12:48.986Z,11.00
2019-03-09T09:15:17.776Z,11.37
2019-03-09T09:17:46.499Z,14.30
2019-03-09T09:20:16.802Z,10.53
2019-03-09T09:22:45.386Z,10.17
2019-03-09T09:25:14.253Z,10.33
2019-03-09T09:27:43.091Z,8.37
2019-03-09T09:30:14.865Z,7.80
2019-03-09T09:32:43.483Z,11.40
2019-03-09T09:35:12.190Z,7.47
2019-03-09T09:37:40.985Z,9.73
2019-03-09T09:40:11.090Z,10.83
2019-03-09T09:42:39.714Z,15.17
2019-03-09T09:45:09.792Z,12.23
2019-03-09T09:47:38.385Z,11.83
2019-03-09T09:50:07.778Z,8.30
2019-03-09T09:52:36.514Z,12.43
2019-03-09T09:55:06.131Z,10.10
2019-03-09T09:57:35.019Z,13.27
2019-03-09T10:00:03.957Z,9.03
2019-03-09T10:02:32.540Z,7.07
2019-03-09T10:05:01.160Z,11.63
2019-03-09T10:07:30.000Z,8.67
2019-03-09T10:09:58.616Z,6.90
2019-03-09T10:12:27.295Z,7.43
2019-03-09T10:14:55.905Z,9.10
2019-03-09T10:17:24.836Z,9.90
2019-03-09T10:19:53.480Z,7.90
2019-03-09T10:22:22.103Z,11.13
2019-03-09T10:24:51.159Z,8.53
2019-03-09T10:27:19.769Z,6.87
2019-03-09T10:29:48.375Z,7.90
2019-03-09T10:32:17.003Z,8.10
2019-03-09T10:34:45.620Z,7.37
2019-03-09T10:37:14.271Z,5.50
2019-03-09T10:39:43.119Z,5.50
2019-03-09T10:42:12.066Z,7.37
2019-03-09T10:44:41.024Z,7.70
2019-03-09T10:47:09.879Z,6.00
2019-03-09T10:49:38.728Z,4.83
2019-03-09T10:52:07.335Z,7.83
2019-03-09T10:54:36.389Z,10.10
2019-03-09T10:57:05.142Z,9.30
2019-03-09T10:59:33.699Z,7.30
2019-03-09T11:02:02.331Z,8.97
2019-03-09T11:04:30.932Z,7.07
2019-03-09T11:06:59.584Z,10.57
2019-03-09T11:09:28.172Z,12.60
2019-03-09T11:11:56.768Z,7.30
2019-03-09T11:14:25.373Z,13.67
2019-03-09T11:16:53.987Z,7.20
2019-03-09T11:19:22.586Z,4.70
2019-03-09T11:21:51.294Z,14.20
2019-03-09T11:24:19.869Z,5.43
2019-03-09T11:26:48.473Z,6.10
2019-03-09T11:29:17.141Z,7.97
2019-03-09T11:31:45.930Z,4.60
2019-03-09T11:34:14.797Z,5.60
2019-03-09T11:36:43.383Z,4.73
2019-03-09T11:39:12.099Z,3.23
2019-03-09T11:41:40.941Z,2.80
2019-03-09T11:44:09.570Z,2.30
2019-03-09T11:46:38.391Z,4.30
2019-03-09T11:49:07.273Z,3.20
2019-03-09T11:51:36.111Z,8.20
2019-03-09T11:54:04.857Z,5.37
2019-03-09T11:56:33.933Z,6.43
2019-03-09T11:59:02.627Z,3.10
2019-03-09T12:01:33.108Z,5.47
2019-03-09T12:04:02.011Z,5.23
2019-03-09T12:06:31.845Z,5.20
2019-03-09T12:09:00.716Z,4.40
2019-03-09T12:11:29.549Z,3.87
2019-03-09T12:13:58.204Z,4.43
2019-03-09T12:16:26.833Z,8.33
2019-03-09T12:18:55.513Z,3.87
2019-03-09T12:21:24.947Z,8.30
2019-03-09T12:23:53.916Z,4.43
2019-03-09T12:26:22.757Z,2.53
2019-03-09T12:28:51.597Z,5.87
2019-03-09T12:31:20.592Z,11.03
2019-03-09T12:33:49.253Z,4.10
2019-03-09T12:36:17.938Z,4.27
2019-03-09T12:38:46.857Z,3.30
2019-03-09T12:41:16.204Z,4.40
2019-03-09T12:43:45.035Z,3.97
2019-03-09T12:46:13.711Z,3.13
2019-03-09T12:48:42.489Z,4.03
2019-03-09T12:51:11.109Z,4.20
2019-03-09T12:53:39.693Z,3.13
2019-03-09T12:56:08.393Z,1.27
2019-03-09T12:58:37.020Z,3.43
2019-03-09T13:01:05.844Z,1.90
2019-03-09T13:03:35.236Z,1.50
2019-03-09T13:06:03.888Z,1.43
2019-03-09T13:08:32.820Z,3.67
2019-03-09T13:11:01.464Z,3.57
2019-03-09T13:13:30.052Z,2.30
2019-03-09T13:15:58.803Z,3.23
2019-03-09T13:18:27.418Z,2.40
2019-03-09T13:20:56.114Z,2.10
2019-03-09T13:23:24.733Z,1.83
2019-03-09T13:25:53.393Z,2.30
2019-03-09T13:28:21.972Z,4.63
2019-03-09T13:30:50.720Z,1.70
2019-03-09T13:33:19.624Z,2.23
2019-03-09T13:35:48.225Z,1.57
2019-03-09T13:38:16.828Z,2.83
2019-03-09T13:40:45.475Z,3.43
2019-03-09T13:43:14.137Z,1.70
2019-03-09T13:45:42.724Z,1.60
2019-03-09T13:48:11.323Z,1.97
2019-03-09T13:50:39.914Z,1.40
2019-03-09T13:53:08.509Z,3.13
2019-03-09T13:55:37.157Z,1.70
2019-03-09T13:58:05.996Z,3.10
2019-03-09T14:00:40.504Z,2.60
2019-03-09T14:03:05.349Z,1.50
2019-03-09T14:05:33.929Z,1.93
2019-03-09T14:08:02.566Z,1.80
2019-03-09T14:10:31.337Z,4.20
2019-03-09T14:12:59.941Z,2.30
2019-03-09T14:15:29.079Z,3.07
2019-03-09T14:17:57.708Z,1.70
2019-03-09T14:20:26.558Z,1.97
2019-03-09T14:22:55.220Z,2.33
2019-03-09T14:25:23.889Z,1.97
2019-03-09T14:27:52.574Z,2.80
2019-03-09T14:30:21.423Z,3.10
2019-03-09T14:32:50.014Z,2.00
2019-03-09T14:35:18.644Z,2.03
2019-03-09T14:37:47.231Z,2.50
2019-03-09T14:40:16.115Z,2.60
2019-03-09T14:42:45.167Z,2.53
2019-03-09T14:45:15.242Z,5.40
2019-03-09T14:47:43.996Z,2.40
2019-03-09T14:50:12.742Z,2.63
2019-03-09T14:52:41.649Z,2.40
2019-03-09T14:55:10.584Z,2.43
2019-03-09T14:57:39.479Z,3.57
2019-03-09T15:00:11.489Z,12.90
2019-03-09T15:02:40.144Z,4.50
2019-03-09T15:05:08.912Z,2.43
2019-03-09T15:07:37.592Z,4.70
2019-03-09T15:10:06.673Z,3.13
2019-03-09T15:12:35.380Z,5.27
2019-03-09T15:15:04.110Z,4.20
2019-03-09T15:17:32.924Z,3.17
2019-03-09T15:20:01.557Z,4.73
2019-03-09T15:22:30.299Z,9.03
2019-03-09T15:24:58.921Z,5.20
2019-03-09T15:27:27.607Z,3.63
2019-03-09T15:29:56.332Z,7.07
2019-03-09T15:32:25.025Z,10.20
2019-03-09T15:34:53.951Z,5.27
2019-03-09T15:37:22.613Z,8.83
2019-03-09T15:39:51.173Z,7.60
2019-03-09T15:42:19.823Z,14.40
2019-03-09T15:44:48.518Z,14.20
2019-03-09T15:47:17.198Z,23.40
2019-03-09T15:49:45.823Z,9.40
2019-03-09T15:52:14.799Z,19.00
2019-03-09T15:54:43.798Z,21.33
2019-03-09T15:57:12.587Z,21.00
2019-03-09T15:59:41.506Z,11.50
2019-03-09T16:02:11.216Z,12.60
2019-03-09T16:04:39.914Z,12.80
2019-03-09T16:07:08.774Z,14.07
2019-03-09T16:09:37.445Z,14.77
2019-03-09T16:12:06.419Z,14.37
2019-03-09T16:14:35.213Z,19.77
2019-03-09T16:17:07.417Z,13.13
2019-03-09T16:19:36.316Z,15.30
2019-03-09T16:22:05.332Z,12.07
2019-03-09T16:24:34.492Z,23.97
2019-03-09T16:27:03.491Z,27.90
2019-03-09T16:29:32.581Z,17.10
2019-03-09T16:32:01.534Z,18.13
2019-03-09T16:34:30.488Z,17.40
2019-03-09T16:36:59.355Z,10.10
2019-03-09T16:39:27.954Z,7.97
2019-03-09T16:41:56.888Z,7.57
2019-03-09T16:44:25.585Z,7.90
2019-03-09T16:46:54.420Z,5.77
2019-03-09T16:49:23.077Z,5.37
2019-03-09T16:51:51.978Z,8.70
2019-03-09T16:54:20.595Z,13.33
2019-03-09T16:56:49.479Z,3.40
2019-03-09T16:59:18.081Z,6.00
2019-03-09T17:01:46.705Z,8.80
2019-03-09T17:04:15.300Z,6.90
2019-03-09T17:06:44.138Z,11.93
2019-03-09T17:09:12.760Z,3.57
2019-03-09T17:11:41.362Z,12.40
2019-03-09T17:14:09.927Z,5.13
2019-03-09T17:16:38.647Z,2.83
2019-03-09T17:19:07.271Z,1.60
2019-03-09T17:21:36.275Z,1.93
2019-03-09T17:24:05.163Z,2.30
2019-03-09T17:26:34.022Z,4.47
2019-03-09T17:29:02.666Z,5.17
2019-03-09T17:31:31.287Z,4.37
2019-03-09T17:33:59.875Z,5.70
2019-03-09T17:36:28.972Z,10.30
2019-03-09T17:38:57.576Z,12.53
2019-03-09T17:41:26.175Z,6.20
2019-03-09T17:43:55.024Z,16.90
2019-03-09T17:46:23.646Z,2.80
2019-03-09T17:48:52.248Z,6.50
2019-03-09T17:51:20.880Z,6.53
2019-03-09T17:53:49.473Z,27.20
2019-03-09T17:56:18.359Z,18.50
2019-03-09T17:58:46.950Z,13.03
2019-03-09T18:01:15.528Z,12.97
2019-03-09T18:03:44.165Z,5.50
2019-03-09T18:06:13.098Z,14.03
2019-03-09T18:08:41.753Z,8.43
2019-03-09T18:11:10.365Z,5.67
2019-03-09T18:13:39.091Z,6.97
2019-03-09T18:16:08.035Z,8.30
2019-03-09T18:18:36.888Z,8.40
2019-03-09T18:21:05.846Z,5.50
2019-03-09T18:23:34.545Z,8.63
2019-03-09T18:26:03.199Z,10.03
2019-03-09T18:28:32.019Z,8.30
2019-03-09T18:31:00.881Z,7.53
2019-03-09T18:33:29.716Z,10.30
2019-03-09T18:35:58.425Z,12.57
2019-03-09T18:38:27.055Z,7.37
2019-03-09T18:40:55.873Z,12.23
2019-03-09T18:43:24.740Z,12.00
2019-03-09T18:45:53.459Z,15.43
2019-03-09T18:48:22.340Z,9.93
2019-03-09T18:50:50.920Z,12.97
2019-03-09T18:53:19.525Z,17.07
2019-03-09T18:55:58.599Z,12.00
2019-03-09T18:58:18.613Z,21.53
2019-03-09T19:00:47.325Z,8.03
2019-03-09T19:03:16.229Z,11.77
2019-03-09T19:05:45.098Z,14.50
2019-03-09T19:08:13.960Z,11.80
2019-03-09T19:10:42.851Z,19.40
2019-03-09T19:13:11.459Z,13.47
2019-03-09T19:15:40.138Z,16.70
2019-03-09T19:18:09.198Z,14.87
2019-03-09T19:20:37.888Z,16.90
2019-03-09T19:23:06.702Z,11.10
2019-03-09T19:25:35.862Z,12.50
2019-03-09T19:28:04.447Z,18.97
2019-03-09T19:30:33.302Z,13.23
2019-03-09T19:33:02.146Z,9.63
2019-03-09T19:35:30.768Z,11.03
2019-03-09T19:37:59.348Z,21.57
2019-03-09T19:40:28.017Z,13.13
2019-03-09T19:42:56.637Z,14.03
2019-03-09T19:45:25.512Z,28.93
2019-03-09T19:47:54.124Z,10.00
2019-03-09T19:50:22.707Z,13.80
2019-03-09T19:52:51.328Z,10.30
2019-03-09T19:55:20.168Z,10.43
2019-03-09T19:57:49.014Z,12.93
2019-03-09T20:00:17.701Z,12.70
2019-03-09T20:02:46.361Z,10.80
2019-03-09T20:05:15.033Z,9.07
2019-03-09T20:07:43.629Z,16.90
2019-03-09T20:10:12.737Z,12.50
2019-03-09T20:12:41.568Z,7.70
2019-03-09T20:15:11.605Z,6.73
2019-03-09T20:17:40.215Z,8.20
2019-03-09T20:20:09.591Z,8.23
2019-03-09T20:22:38.388Z,7.70
2019-03-09T20:25:07.705Z,11.70
2019-03-09T20:27:36.359Z,12.77
2019-03-09T20:30:06.033Z,15.40
2019-03-09T20:32:34.637Z,8.30
2019-03-09T20:35:03.268Z,10.50
2019-03-09T20:37:31.902Z,11.97
2019-03-09T20:40:00.499Z,13.17
2019-03-09T20:42:29.143Z,17.30
2019-03-09T20:44:57.741Z,13.20
2019-03-09T20:47:26.593Z,11.03
2019-03-09T20:49:55.254Z,14.93
2019-03-09T20:52:23.863Z,13.90
2019-03-09T20:54:52.552Z,12.37
2019-03-09T20:57:21.449Z,6.33
2019-03-09T20:59:52.618Z,19.97
2019-03-09T21:02:21.338Z,14.40
2019-03-09T21:04:49.963Z,12.23
2019-03-09T21:07:18.812Z,12.47
2019-03-09T21:09:48.139Z,21.87
2019-03-09T21:12:16.816Z,12.00
2019-03-09T21:14:45.475Z,14.53
2019-03-09T21:17:14.311Z,15.77
2019-03-09T21:19:43.013Z,15.30
2019-03-09T21:22:11.726Z,21.57
2019-03-09T21:24:40.643Z,19.50
2019-03-09T21:27:09.301Z,18.10
2019-03-09T21:29:37.942Z,24.80
2019-03-09T21:32:07.124Z,19.17
2019-03-09T21:34:36.212Z,19.83
2019-03-09T21:37:04.886Z,12.30
2019-03-09T21:39:33.726Z,21.03
2019-03-09T21:42:02.361Z,15.47
2019-03-09T21:44:30.982Z,10.83
2019-03-09T21:46:59.853Z,14.20
2019-03-09T21:49:28.570Z,16.17
2019-03-09T21:51:57.452Z,17.90
2019-03-09T21:54:26.310Z,10.77
2019-03-09T21:56:55.195Z,14.63
2019-03-09T21:59:23.985Z,11.73
2019-03-09T22:01:52.703Z,12.20
2019-03-09T22:04:21.289Z,12.20
2019-03-09T22:06:50.302Z,14.93
2019-03-09T22:09:18.899Z,13.30
2019-03-09T22:11:47.483Z,17.30
2019-03-09T22:14:16.107Z,16.00
2019-03-09T22:16:44.995Z,14.37
2019-03-09T22:19:13.657Z,14.27
2019-03-09T22:21:42.320Z,14.10
2019-03-09T22:24:11.002Z,7.60
2019-03-09T22:26:39.611Z,9.73
2019-03-09T22:29:08.239Z,6.77
2019-03-09T22:31:36.862Z,11.43
2019-03-09T22:34:05.603Z,20.30
2019-03-09T22:36:34.287Z,5.37
2019-03-09T22:39:03.036Z,7.93
2019-03-09T22:41:31.590Z,12.63
2019-03-09T22:44:00.182Z,10.50
2019-03-09T22:46:28.818Z,12.60
2019-03-09T22:48:57.718Z,8.63
2019-03-09T22:51:28.866Z,12.53
2019-03-09T22:53:58.165Z,9.20
2019-03-09T22:56:26.825Z,11.20
2019-03-09T22:58:55.467Z,16.03
2019-03-09T23:01:24.545Z,6.60
2019-03-09T23:03:53.538Z,10.30
2019-03-09T23:06:22.145Z,13.07
2019-03-09T23:08:50.741Z,4.37
2019-03-09T23:11:19.333Z,21.37
2019-03-09T23:13:47.944Z,10.00
2019-03-09T23:16:16.542Z,13.00
2019-03-09T23:18:45.177Z,13.00
2019-03-09T23:21:13.927Z,15.20
2019-03-09T23:23:43.834Z,15.37
2019-03-09T23:26:12.431Z,9.70
2019-03-09T23:28:45.934Z,6.33
2019-03-09T23:31:14.631Z,12.03
2019-03-09T23:33:43.335Z,9.00
2019-03-09T23:36:12.232Z,10.67
2019-03-09T23:38:41.137Z,7.53
2019-03-09T23:41:09.742Z,12.60
2019-03-09T23:43:38.359Z,14.03
2019-03-09T23:46:06.955Z,15.40
2019-03-09T23:48:35.648Z,22.70
2019-03-09T23:51:04.312Z,13.80
2019-03-09T23:53:33.245Z,7.60
2019-03-09T23:56:01.840Z,19.43
2019-03-09T23:58:30.552Z,18.57
